createdAt,value
2018-03-15T00:01:59.303Z,71.56
2018-03-15T00:04:32.244Z,71.30
2018-03-15T00:06:59.635Z,71.32
2018-03-15T00:09:27.018Z,71.51
2018-03-15T00:14:21.107Z,71.45
2018-03-15T00:16:48.508Z,71.67
2018-03-15T00:19:15.903Z,71.49
2018-03-15T00:21:43.325Z,71.64
2018-03-15T00:24:10.769Z,71.83
2018-03-15T00:26:38.172Z,71.65
2018-03-15T00:29:05.591Z,72.01
2018-03-15T00:31:33.000Z,71.82
2018-03-15T00:34:00.410Z,71.97
2018-03-15T00:36:27.795Z,72.06
2018-03-15T00:38:55.202Z,72.05
2018-03-15T00:41:22.591Z,72.15
2018-03-15T00:43:49.991Z,72.25
2018-03-15T00:46:17.403Z,72.17
2018-03-15T00:48:44.815Z,72.41
2018-03-15T00:51:12.228Z,72.33
2018-03-15T00:53:39.841Z,72.33
2018-03-15T00:56:07.235Z,72.33
2018-03-15T00:58:34.628Z,72.50
2018-03-15T01:01:02.037Z,72.43
2018-03-15T01:03:29.423Z,72.66
2018-03-15T01:05:56.831Z,72.60
2018-03-15T01:08:24.224Z,72.75
2018-03-15T01:10:51.625Z,72.43
2018-03-15T01:13:19.019Z,72.68
2018-03-15T01:15:46.418Z,72.83
2018-03-15T01:18:13.815Z,72.72
2018-03-15T01:20:41.211Z,72.98
2018-03-15T01:23:08.615Z,72.99
2018-03-15T01:25:36.004Z,73.04
2018-03-15T01:28:03.390Z,73.17
2018-03-15T01:30:30.798Z,73.50
2018-03-15T01:32:58.191Z,73.54
2018-03-15T01:35:25.583Z,73.57
2018-03-15T01:37:52.986Z,73.45
2018-03-15T01:40:20.382Z,73.37
2018-03-15T01:42:48.071Z,73.36
2018-03-15T01:45:15.760Z,73.50
2018-03-15T01:47:43.155Z,73.31
2018-03-15T01:50:10.560Z,73.39
2018-03-15T01:52:37.955Z,73.35
2018-03-15T01:55:05.363Z,73.55
2018-03-15T01:57:32.828Z,73.35
2018-03-15T02:00:00.257Z,73.21
2018-03-15T02:02:27.927Z,73.17
2018-03-15T02:04:55.318Z,73.17
2018-03-15T02:07:22.710Z,73.08
2018-03-15T02:09:50.111Z,72.97
2018-03-15T02:12:17.498Z,72.68
2018-03-15T02:14:44.907Z,72.81
2018-03-15T02:17:12.296Z,72.58
2018-03-15T02:19:39.687Z,72.53
2018-03-15T02:22:07.091Z,72.69
2018-03-15T02:24:34.496Z,72.70
2018-03-15T02:27:01.889Z,72.55
2018-03-15T02:29:29.291Z,72.42
2018-03-15T02:31:56.675Z,72.44
2018-03-15T02:34:24.080Z,72.35
2018-03-15T02:36:51.470Z,72.49
2018-03-15T02:39:18.860Z,72.34
2018-03-15T02:41:46.262Z,72.48
2018-03-15T02:44:13.663Z,72.45
2018-03-15T02:46:41.064Z,72.28
2018-03-15T02:49:08.463Z,72.32
2018-03-15T02:51:35.863Z,72.45
2018-03-15T02:54:03.258Z,72.38
2018-03-15T02:56:30.660Z,72.37
2018-03-15T02:58:58.047Z,72.31
2018-03-15T03:01:25.453Z,72.07
2018-03-15T03:03:52.836Z,72.06
2018-03-15T03:06:20.239Z,72.00
2018-03-15T03:08:47.642Z,72.07
2018-03-15T03:11:15.072Z,72.11
2018-03-15T03:13:42.471Z,72.09
2018-03-15T03:16:09.987Z,72.37
2018-03-15T03:18:37.371Z,72.22
2018-03-15T03:21:04.775Z,72.17
2018-03-15T03:23:32.163Z,72.64
2018-03-15T03:25:59.569Z,72.57
2018-03-15T03:28:26.970Z,72.60
2018-03-15T03:30:54.397Z,72.64
2018-03-15T03:33:21.775Z,72.52
2018-03-15T03:35:49.328Z,72.51
2018-03-15T03:38:16.744Z,72.75
2018-03-15T03:40:44.143Z,72.62
2018-03-15T03:43:11.563Z,72.59
2018-03-15T03:45:38.960Z,72.68
2018-03-15T03:48:06.385Z,72.51
2018-03-15T03:50:33.786Z,72.41
2018-03-15T03:53:01.178Z,72.37
2018-03-15T03:55:28.684Z,72.47
2018-03-15T03:57:56.087Z,72.52
2018-03-15T04:00:23.481Z,72.45
2018-03-15T04:02:51.083Z,72.50
2018-03-15T04:05:18.473Z,72.80
2018-03-15T04:07:45.871Z,72.95
2018-03-15T04:10:13.259Z,73.10
2018-03-15T04:12:40.664Z,73.11
2018-03-15T04:15:08.068Z,73.05
2018-03-15T04:17:35.455Z,72.96
2018-03-15T04:20:02.859Z,73.09
2018-03-15T04:22:30.243Z,72.94
2018-03-15T04:24:57.631Z,73.00
2018-03-15T04:27:25.045Z,73.15
2018-03-15T04:29:52.448Z,73.20
2018-03-15T04:32:19.838Z,73.22
2018-03-15T04:34:47.240Z,73.41
2018-03-15T04:37:14.634Z,73.41
2018-03-15T04:39:42.037Z,73.22
2018-03-15T04:42:09.417Z,73.04
2018-03-15T04:44:36.822Z,72.75
2018-03-15T04:47:04.204Z,72.34
2018-03-15T04:49:31.611Z,72.10
2018-03-15T04:51:59.007Z,71.91
2018-03-15T04:54:26.403Z,71.57
2018-03-15T04:56:53.798Z,71.66
2018-03-15T04:59:21.199Z,71.52
2018-03-15T05:01:48.595Z,71.55
2018-03-15T05:04:16.003Z,71.52
2018-03-15T05:06:43.435Z,71.55
2018-03-15T05:09:10.876Z,71.48
2018-03-15T05:11:38.275Z,71.53
2018-03-15T05:14:05.700Z,71.61
2018-03-15T05:16:33.338Z,71.87
2018-03-15T05:19:00.748Z,71.69
2018-03-15T05:21:28.135Z,71.91
2018-03-15T05:23:55.555Z,71.99
2018-03-15T05:26:22.954Z,71.92
2018-03-15T05:28:50.349Z,71.90
2018-03-15T05:31:17.747Z,72.03
2018-03-15T05:33:45.142Z,71.82
2018-03-15T05:36:12.659Z,71.57
2018-03-15T05:38:39.939Z,71.55
2018-03-15T05:41:07.328Z,71.37
2018-03-15T05:43:34.723Z,71.08
2018-03-15T05:46:02.106Z,71.01
2018-03-15T05:48:29.507Z,70.69
2018-03-15T05:50:56.898Z,70.58
2018-03-15T05:53:24.298Z,70.64
2018-03-15T05:55:51.682Z,70.18
2018-03-15T05:58:19.092Z,70.28
2018-03-15T06:00:46.500Z,70.14
2018-03-15T06:03:13.883Z,69.77
2018-03-15T06:05:41.275Z,69.48
2018-03-15T06:08:08.676Z,68.58
2018-03-15T06:10:36.067Z,67.61
2018-03-15T06:13:03.468Z,66.72
2018-03-15T06:15:30.853Z,65.84
2018-03-15T06:17:58.260Z,65.21
2018-03-15T06:20:25.642Z,64.35
2018-03-15T06:22:53.036Z,63.52
2018-03-15T06:25:20.447Z,62.91
2018-03-15T06:27:47.833Z,61.87
2018-03-15T06:30:15.226Z,61.08
2018-03-15T06:32:42.804Z,60.46
2018-03-15T06:35:11.120Z,59.66
2018-03-15T06:37:38.501Z,58.93
2018-03-15T06:40:05.911Z,58.30
2018-03-15T06:42:33.308Z,57.52
2018-03-15T06:45:00.729Z,57.86
2018-03-15T06:47:28.103Z,56.82
2018-03-15T06:49:55.507Z,56.57
2018-03-15T06:52:22.901Z,55.93
2018-03-15T06:54:50.305Z,55.79
2018-03-15T06:57:17.711Z,54.72
2018-03-15T06:59:45.114Z,53.96
2018-03-15T07:02:13.378Z,53.39
2018-03-15T07:04:40.795Z,54.20
2018-03-15T07:07:08.207Z,54.15
2018-03-15T07:09:35.615Z,54.05
2018-03-15T07:12:03.029Z,53.44
2018-03-15T07:14:30.442Z,52.86
2018-03-15T07:16:57.983Z,52.62
2018-03-15T07:19:25.387Z,53.06
2018-03-15T07:21:52.775Z,52.39
2018-03-15T07:24:20.396Z,51.44
2018-03-15T07:26:47.828Z,51.22
2018-03-15T07:29:15.248Z,51.59
2018-03-15T07:31:42.676Z,50.92
2018-03-15T07:34:10.112Z,50.77
2018-03-15T07:36:37.498Z,51.33
2018-03-15T07:39:04.885Z,50.93
2018-03-15T07:41:32.298Z,51.25
2018-03-15T07:43:59.707Z,51.51
2018-03-15T07:46:27.107Z,51.79
2018-03-15T07:48:54.516Z,51.66
2018-03-15T07:51:21.911Z,50.88
2018-03-15T07:53:49.464Z,51.27
2018-03-15T07:56:16.864Z,51.87
2018-03-15T07:58:44.247Z,51.94
2018-03-15T08:01:11.647Z,51.55
2018-03-15T08:03:39.049Z,51.76
2018-03-15T08:06:06.452Z,51.04
2018-03-15T08:08:33.847Z,51.24
2018-03-15T08:11:01.248Z,51.69
2018-03-15T08:13:28.647Z,51.95
2018-03-15T08:15:56.051Z,51.40
2018-03-15T08:18:23.443Z,52.15
2018-03-15T08:20:50.832Z,52.06
2018-03-15T08:23:18.240Z,51.92
2018-03-15T08:25:45.631Z,52.58
2018-03-15T08:28:13.028Z,53.47
2018-03-15T08:30:40.423Z,52.82
2018-03-15T08:33:07.829Z,54.44
2018-03-15T08:35:35.219Z,53.56
2018-03-15T08:38:02.886Z,53.78
2018-03-15T08:40:30.282Z,53.64
2018-03-15T08:42:57.667Z,54.20
2018-03-15T08:45:25.092Z,54.35
2018-03-15T08:47:52.483Z,54.67
2018-03-15T08:50:19.874Z,53.37
2018-03-15T08:52:47.271Z,53.92
2018-03-15T08:55:14.674Z,52.79
2018-03-15T08:57:42.084Z,53.06
2018-03-15T09:00:09.475Z,52.33
2018-03-15T09:02:36.866Z,51.86
2018-03-15T09:05:04.263Z,51.90
2018-03-15T09:07:31.750Z,51.02
2018-03-15T09:09:59.059Z,51.11
2018-03-15T09:12:26.462Z,51.02
2018-03-15T09:14:53.871Z,51.45
2018-03-15T09:17:21.275Z,51.14
2018-03-15T09:19:48.681Z,51.42
2018-03-15T09:22:16.072Z,51.50
2018-03-15T09:24:43.471Z,52.32
2018-03-15T09:27:10.872Z,52.84
2018-03-15T09:29:38.276Z,53.27
2018-03-15T09:32:05.713Z,52.75
2018-03-15T09:34:33.567Z,53.35
2018-03-15T09:37:00.887Z,53.72
2018-03-15T09:39:28.275Z,54.43
2018-03-15T09:41:55.697Z,54.51
2018-03-15T09:44:23.080Z,54.03
2018-03-15T09:46:50.487Z,54.73
2018-03-15T09:49:17.879Z,54.22
2018-03-15T09:51:45.295Z,54.74
2018-03-15T09:54:12.692Z,54.29
2018-03-15T09:56:40.436Z,54.77
2018-03-15T09:59:07.865Z,55.29
2018-03-15T10:01:35.244Z,55.19
2018-03-15T10:04:02.709Z,56.21
2018-03-15T10:06:30.090Z,55.99
2018-03-15T10:08:57.504Z,55.04
2018-03-15T10:11:24.890Z,55.45
2018-03-15T10:13:52.295Z,56.01
2018-03-15T10:16:19.755Z,56.83
2018-03-15T10:18:47.215Z,56.71
2018-03-15T10:21:14.614Z,56.84
2018-03-15T10:23:42.046Z,57.25
2018-03-15T10:26:09.677Z,57.41
2018-03-15T10:28:37.123Z,57.92
2018-03-15T10:31:04.524Z,57.25
2018-03-15T10:33:37.763Z,57.75
2018-03-15T10:36:05.164Z,57.82
2018-03-15T10:38:32.554Z,58.04
2018-03-15T10:40:59.945Z,57.33
2018-03-15T10:43:27.356Z,56.99
2018-03-15T10:45:54.743Z,57.31
2018-03-15T10:48:22.252Z,57.07
2018-03-15T10:50:49.641Z,56.88
2018-03-15T10:53:17.038Z,56.67
2018-03-15T10:55:44.462Z,55.91
2018-03-15T10:58:12.167Z,55.96
2018-03-15T11:03:50.527Z,56.63
2018-03-15T11:06:23.618Z,55.58
2018-03-15T11:08:56.691Z,56.56
2018-03-15T11:11:24.085Z,55.90
2018-03-15T11:13:51.483Z,54.86
2018-03-15T11:16:18.913Z,54.39
2018-03-15T11:18:46.307Z,54.56
2018-03-15T11:21:13.701Z,54.33
2018-03-15T11:23:41.114Z,54.98
2018-03-15T11:26:08.499Z,54.27
2018-03-15T11:28:35.904Z,54.62
2018-03-15T11:31:03.295Z,54.11
2018-03-15T11:33:30.702Z,53.99
2018-03-15T11:35:58.095Z,53.46
2018-03-15T11:38:25.503Z,53.34
2018-03-15T11:40:52.912Z,52.64
2018-03-15T11:43:20.320Z,52.21
2018-03-15T11:45:47.725Z,52.08
2018-03-15T11:48:15.111Z,51.73
2018-03-15T11:50:42.838Z,50.60
2018-03-15T11:53:10.185Z,51.39
2018-03-15T11:55:37.594Z,50.55
2018-03-15T11:58:04.987Z,50.94
2018-03-15T12:00:32.399Z,50.60
2018-03-15T12:02:59.791Z,50.16
2018-03-15T12:05:27.207Z,50.29
2018-03-15T12:07:54.608Z,49.63
2018-03-15T12:10:22.019Z,50.49
2018-03-15T12:12:49.412Z,50.09
2018-03-15T12:15:16.889Z,50.33
2018-03-15T12:17:44.303Z,50.23
2018-03-15T12:20:11.776Z,49.59
2018-03-15T12:22:39.174Z,50.56
2018-03-15T12:25:06.580Z,50.27
2018-03-15T12:27:33.992Z,50.05
2018-03-15T12:30:01.404Z,47.84
2018-03-15T12:32:28.812Z,46.97
2018-03-15T12:34:56.224Z,47.81
2018-03-15T12:37:23.615Z,47.40
2018-03-15T12:39:51.027Z,46.74
2018-03-15T12:42:18.476Z,47.05
2018-03-15T12:44:45.900Z,47.14
2018-03-15T12:47:13.319Z,47.46
2018-03-15T12:49:40.742Z,46.91
2018-03-15T12:52:08.147Z,45.91
2018-03-15T12:54:35.547Z,45.52
2018-03-15T12:57:02.962Z,45.84
2018-03-15T12:59:30.347Z,46.04
2018-03-15T13:01:57.765Z,46.74
2018-03-15T13:04:25.164Z,46.92
2018-03-15T13:06:52.583Z,46.66
2018-03-15T13:09:19.972Z,48.35
2018-03-15T13:11:47.410Z,48.43
2018-03-15T13:14:14.834Z,47.96
2018-03-15T13:16:42.359Z,47.93
2018-03-15T13:19:09.782Z,47.41
2018-03-15T13:21:37.156Z,47.82
2018-03-15T13:24:04.561Z,47.90
2018-03-15T13:26:31.959Z,47.38
2018-03-15T13:28:59.375Z,47.70
2018-03-15T13:31:26.772Z,47.55
2018-03-15T13:33:54.163Z,47.70
2018-03-15T13:36:21.580Z,47.27
2018-03-15T13:38:48.988Z,46.89
2018-03-15T13:41:16.413Z,46.92
2018-03-15T13:43:43.845Z,47.63
2018-03-15T13:46:11.278Z,48.22
2018-03-15T13:48:38.888Z,47.99
2018-03-15T13:51:06.302Z,47.30
2018-03-15T13:53:33.712Z,47.07
2018-03-15T13:56:01.124Z,47.07
2018-03-15T13:58:28.525Z,47.60
2018-03-15T14:00:55.927Z,47.19
2018-03-15T14:03:23.327Z,47.25
2018-03-15T14:05:50.744Z,47.34
2018-03-15T14:08:18.171Z,47.44
2018-03-15T14:10:45.597Z,47.23
2018-03-15T14:13:13.031Z,47.86
2018-03-15T14:15:40.492Z,47.42
2018-03-15T14:18:07.896Z,47.35
2018-03-15T14:20:35.295Z,47.72
2018-03-15T14:23:02.733Z,46.62
2018-03-15T14:25:30.133Z,47.20
2018-03-15T14:27:57.534Z,46.56
2018-03-15T14:30:24.927Z,46.29
2018-03-15T14:32:52.341Z,46.83
2018-03-15T14:35:19.740Z,46.60
2018-03-15T14:37:47.163Z,47.04
2018-03-15T14:40:14.588Z,46.76
2018-03-15T14:42:42.012Z,46.92
2018-03-15T14:45:09.440Z,46.66
2018-03-15T14:47:36.832Z,46.27
2018-03-15T14:50:04.263Z,46.09
2018-03-15T14:52:31.656Z,46.42
2018-03-15T14:54:59.071Z,46.20
2018-03-15T14:57:26.466Z,45.91
2018-03-15T14:59:53.872Z,46.57
2018-03-15T15:02:21.267Z,46.45
2018-03-15T15:04:48.675Z,46.77
2018-03-15T15:07:16.066Z,47.20
2018-03-15T15:09:43.479Z,47.73
2018-03-15T15:12:10.880Z,47.43
2018-03-15T15:14:38.280Z,47.45
2018-03-15T15:17:05.791Z,47.48
2018-03-15T15:19:33.196Z,48.22
2018-03-15T15:22:00.591Z,48.53
2018-03-15T15:24:27.992Z,48.84
2018-03-15T15:26:55.388Z,49.49
2018-03-15T15:29:22.800Z,48.99
2018-03-15T15:31:50.187Z,49.16
2018-03-15T15:34:17.744Z,48.97
2018-03-15T15:36:45.144Z,49.01
2018-03-15T15:39:12.562Z,49.23
2018-03-15T15:41:40.268Z,49.15
2018-03-15T15:44:07.673Z,49.39
2018-03-15T15:46:35.095Z,48.88
2018-03-15T15:49:02.561Z,48.84
2018-03-15T15:51:29.955Z,48.98
2018-03-15T15:53:57.355Z,49.80
2018-03-15T15:56:24.891Z,50.12
2018-03-15T15:58:52.330Z,50.26
2018-03-15T16:01:19.700Z,50.47
2018-03-15T16:03:47.213Z,50.53
2018-03-15T16:06:14.631Z,51.68
2018-03-15T16:08:42.056Z,51.69
2018-03-15T16:11:09.478Z,51.95
2018-03-15T16:13:36.880Z,52.18
2018-03-15T16:16:04.535Z,52.32
2018-03-15T16:18:31.940Z,52.59
2018-03-15T16:20:59.343Z,52.96
2018-03-15T16:23:26.756Z,53.23
2018-03-15T16:25:54.172Z,53.04
2018-03-15T16:28:21.571Z,53.42
2018-03-15T16:30:48.973Z,53.56
2018-03-15T16:33:16.398Z,53.93
2018-03-15T16:35:43.799Z,54.30
2018-03-15T16:38:11.204Z,53.96
2018-03-15T16:40:38.598Z,54.07
2018-03-15T16:43:06.021Z,54.10
2018-03-15T16:45:33.583Z,54.14
2018-03-15T16:48:00.979Z,54.01
2018-03-15T16:50:28.388Z,54.37
2018-03-15T16:52:55.943Z,54.43
2018-03-15T16:55:23.348Z,54.71
2018-03-15T16:57:50.743Z,54.83
2018-03-15T17:00:18.174Z,55.10
2018-03-15T17:02:45.594Z,55.31
2018-03-15T17:05:13.336Z,55.42
2018-03-15T17:07:40.768Z,55.12
2018-03-15T17:10:08.167Z,55.37
2018-03-15T17:12:35.583Z,55.01
2018-03-15T17:15:02.992Z,55.18
2018-03-15T17:17:30.395Z,55.01
2018-03-15T17:19:57.813Z,54.99
2018-03-15T17:22:25.210Z,55.10
2018-03-15T17:24:52.766Z,55.02
2018-03-15T17:27:20.165Z,55.54
2018-03-15T17:29:47.598Z,55.81
2018-03-15T17:32:15.054Z,55.86
2018-03-15T17:34:42.517Z,55.61
2018-03-15T17:37:09.923Z,55.66
2018-03-15T17:39:37.468Z,55.70
2018-03-15T17:42:04.863Z,55.79
2018-03-15T17:44:32.259Z,55.79
2018-03-15T17:46:59.780Z,55.90
2018-03-15T17:49:27.160Z,56.13
2018-03-15T17:51:54.571Z,56.28
2018-03-15T17:54:21.971Z,56.68
2018-03-15T17:56:49.404Z,57.01
2018-03-15T17:59:16.807Z,57.78
2018-03-15T18:01:44.247Z,58.20
2018-03-15T18:04:11.688Z,58.79
2018-03-15T18:06:39.112Z,59.00
2018-03-15T18:09:06.520Z,59.56
2018-03-15T18:11:33.926Z,60.21
2018-03-15T18:14:01.323Z,60.41
2018-03-15T18:16:28.735Z,60.60
2018-03-15T18:18:56.139Z,60.96
2018-03-15T18:21:23.566Z,60.79
2018-03-15T18:23:50.968Z,61.07
2018-03-15T18:26:18.430Z,61.40
2018-03-15T18:28:45.986Z,61.44
2018-03-15T18:31:14.338Z,61.32
2018-03-15T18:33:41.757Z,61.26
2018-03-15T18:36:09.147Z,61.51
2018-03-15T18:38:36.559Z,61.93
2018-03-15T18:41:04.007Z,61.77
2018-03-15T18:43:31.423Z,61.25
2018-03-15T18:45:58.807Z,61.88
2018-03-15T18:48:26.325Z,61.86
2018-03-15T18:50:53.843Z,61.75
2018-03-15T18:53:21.264Z,62.10
2018-03-15T18:55:48.664Z,62.52
2018-03-15T18:58:16.076Z,62.35
2018-03-15T19:00:43.488Z,62.65
2018-03-15T19:03:10.885Z,62.80
2018-03-15T19:05:38.296Z,63.09
2018-03-15T19:08:05.834Z,63.22
2018-03-15T19:10:33.388Z,63.64
2018-03-15T19:13:00.808Z,63.57
2018-03-15T19:15:28.276Z,63.97
2018-03-15T19:17:55.662Z,64.44
2018-03-15T19:20:23.076Z,64.63
2018-03-15T19:22:50.491Z,64.90
2018-03-15T19:25:18.109Z,64.90
2018-03-15T19:27:45.535Z,65.13
2018-03-15T19:30:12.952Z,65.60
2018-03-15T19:32:40.584Z,65.46
2018-03-15T19:35:08.035Z,65.69
2018-03-15T19:37:35.443Z,66.12
2018-03-15T19:40:02.844Z,66.31
2018-03-15T19:42:30.243Z,66.13
2018-03-15T19:44:57.647Z,66.28
2018-03-15T19:47:25.055Z,66.85
2018-03-15T19:49:52.451Z,67.13
2018-03-15T19:52:20.015Z,67.02
2018-03-15T19:54:48.221Z,67.46
2018-03-15T19:57:15.636Z,67.54
2018-03-15T19:59:43.085Z,67.73
2018-03-15T20:02:10.534Z,67.84
2018-03-15T20:04:37.939Z,68.07
2018-03-15T20:07:05.807Z,68.13
2018-03-15T20:09:33.155Z,68.15
2018-03-15T20:12:00.576Z,68.46
2018-03-15T20:14:27.960Z,68.43
2018-03-15T20:16:55.365Z,68.34
2018-03-15T20:19:22.821Z,68.78
2018-03-15T20:21:50.184Z,68.73
2018-03-15T20:24:23.211Z,68.48
2018-03-15T20:26:50.605Z,68.58
2018-03-15T20:29:18.172Z,68.72
2018-03-15T20:31:45.613Z,69.20
2018-03-15T20:36:46.813Z,69.34
2018-03-15T20:39:19.926Z,69.32
2018-03-15T20:41:47.344Z,69.27
2018-03-15T20:44:14.777Z,69.41
2018-03-15T20:46:47.817Z,69.29
2018-03-15T20:49:15.248Z,69.47
2018-03-15T20:51:42.703Z,69.46
2018-03-15T20:54:10.483Z,69.26
2018-03-15T20:56:37.887Z,69.37
2018-03-15T20:59:05.286Z,69.38
2018-03-15T21:01:32.707Z,69.37
2018-03-15T21:04:00.091Z,69.40
2018-03-15T21:06:27.512Z,69.39
2018-03-15T21:08:54.925Z,69.45
2018-03-15T21:11:22.322Z,69.64
2018-03-15T21:13:49.746Z,69.55
2018-03-15T21:16:17.166Z,69.51
2018-03-15T21:18:44.618Z,69.36
2018-03-15T21:21:12.050Z,69.41
2018-03-15T21:23:39.461Z,69.52
2018-03-15T21:26:06.877Z,69.75
2018-03-15T21:28:34.314Z,69.64
2018-03-15T21:31:01.717Z,69.55
2018-03-15T21:33:29.236Z,69.75
2018-03-15T21:35:56.607Z,69.84
2018-03-15T21:38:24.008Z,69.72
2018-03-15T21:40:51.411Z,69.88
2018-03-15T21:43:18.819Z,69.91
2018-03-15T21:45:46.267Z,69.80
2018-03-15T21:48:13.684Z,69.46
2018-03-15T21:50:41.137Z,69.42
2018-03-15T21:53:08.540Z,69.53
2018-03-15T21:55:36.055Z,69.92
2018-03-15T21:58:03.447Z,70.02
2018-03-15T22:00:30.849Z,69.96
2018-03-15T22:02:58.250Z,69.96
2018-03-15T22:05:25.647Z,69.95
2018-03-15T22:07:53.056Z,70.27
2018-03-15T22:10:20.455Z,70.67
2018-03-15T22:12:47.902Z,70.84
2018-03-15T22:15:15.316Z,70.68
2018-03-15T22:17:42.825Z,70.89
2018-03-15T22:20:10.244Z,71.03
2018-03-15T22:22:37.639Z,71.13
2018-03-15T22:25:05.072Z,71.17
2018-03-15T22:27:32.459Z,71.19
2018-03-15T22:29:59.873Z,71.07
2018-03-15T22:32:27.273Z,70.97
2018-03-15T22:34:54.674Z,70.76
2018-03-15T22:37:22.085Z,70.70
2018-03-15T22:39:49.784Z,70.78
2018-03-15T22:42:17.187Z,71.14
2018-03-15T22:44:44.593Z,71.04
2018-03-15T22:47:12.046Z,70.82
2018-03-15T22:49:39.490Z,70.71
2018-03-15T22:52:06.895Z,70.86
2018-03-15T22:54:34.291Z,71.10
2018-03-15T22:57:01.700Z,70.93
2018-03-15T22:59:29.095Z,70.95
2018-03-15T23:01:56.494Z,71.05
2018-03-15T23:04:23.928Z,71.15
2018-03-15T23:06:51.333Z,71.13
2018-03-15T23:09:18.736Z,71.21
2018-03-15T23:11:46.119Z,71.46
2018-03-15T23:14:13.571Z,71.26
2018-03-15T23:16:40.974Z,71.50
2018-03-15T23:19:08.380Z,71.62
2018-03-15T23:21:36.859Z,71.66
2018-03-15T23:24:04.255Z,71.54
2018-03-15T23:26:31.671Z,71.65
2018-03-15T23:28:59.063Z,71.57
2018-03-15T23:31:26.471Z,71.52
2018-03-15T23:33:53.874Z,71.63
2018-03-15T23:36:21.511Z,71.79
2018-03-15T23:38:48.908Z,71.75
2018-03-15T23:41:16.321Z,71.95
2018-03-15T23:43:43.724Z,72.00
2018-03-15T23:46:11.156Z,71.84
2018-03-15T23:48:38.559Z,72.01
2018-03-15T23:51:05.972Z,72.34
2018-03-15T23:53:33.391Z,72.33
2018-03-15T23:56:00.786Z,72.73
2018-03-15T23:58:28.195Z,72.71
